createdAt,value
2023-07-18T00:00:42.401Z,29.41
2023-07-18T00:01:42.385Z,29.41
2023-07-18T00:02:42.448Z,29.40
2023-07-18T00:03:42.446Z,29.41
2023-07-18T00:04:42.329Z,29.41
2023-07-18T00:05:42.748Z,29.41
2023-07-18T00:06:42.318Z,29.40
2023-07-18T00:07:42.337Z,29.40
2023-07-18T00:08:42.304Z,29.40
2023-07-18T00:09:42.319Z,29.40
2023-07-18T00:10:42.306Z,29.40
2023-07-18T00:11:42.281Z,29.40
2023-07-18T00:12:42.274Z,29.39
2023-07-18T00:13:42.299Z,29.40
2023-07-18T00:14:42.296Z,29.39
2023-07-18T00:15:42.285Z,29.39
2023-07-18T00:16:42.290Z,29.39
2023-07-18T00:17:42.341Z,29.39
2023-07-18T00:18:42.343Z,29.39
2023-07-18T00:19:42.362Z,29.39
2023-07-18T00:20:42.367Z,29.39
2023-07-18T00:21:42.398Z,29.39
2023-07-18T00:22:42.446Z,29.39
2023-07-18T00:23:42.446Z,29.39
2023-07-18T00:24:42.445Z,29.38
2023-07-18T00:25:42.531Z,29.39
2023-07-18T00:26:42.496Z,29.38
2023-07-18T00:27:42.503Z,29.38
2023-07-18T00:28:42.519Z,29.37
2023-07-18T00:29:42.557Z,29.38
2023-07-18T00:30:42.568Z,29.37
2023-07-18T00:31:42.626Z,29.37
2023-07-18T00:32:42.699Z,29.37
2023-07-18T00:33:42.667Z,29.37
2023-07-18T00:34:42.637Z,29.37
2023-07-18T00:35:42.628Z,29.37
2023-07-18T00:36:42.664Z,29.36
2023-07-18T00:37:42.668Z,29.37
2023-07-18T00:38:42.705Z,29.36
2023-07-18T00:39:42.727Z,29.36
2023-07-18T00:40:42.741Z,29.36
2023-07-18T00:41:42.767Z,29.36
2023-07-18T00:42:42.785Z,29.35
2023-07-18T00:43:42.770Z,29.35
2023-07-18T00:44:42.813Z,29.35
2023-07-18T00:45:42.847Z,29.35
2023-07-18T00:46:42.922Z,29.35
2023-07-18T00:47:42.944Z,29.34
2023-07-18T00:48:42.892Z,29.35
2023-07-18T00:49:42.914Z,29.35
2023-07-18T00:50:42.977Z,29.36
2023-07-18T00:51:42.953Z,29.35
2023-07-18T00:52:42.985Z,29.35
2023-07-18T00:53:43.161Z,29.34
2023-07-18T00:54:43.084Z,29.34
2023-07-18T00:55:43.047Z,29.35
2023-07-18T00:56:43.089Z,29.34
2023-07-18T00:57:43.093Z,29.34
2023-07-18T00:58:43.099Z,29.34
2023-07-18T00:59:43.125Z,29.33
2023-07-18T01:00:43.119Z,29.34
2023-07-18T01:01:43.180Z,29.34
2023-07-18T01:02:43.271Z,29.34
2023-07-18T01:03:43.233Z,29.33
2023-07-18T01:04:43.201Z,29.33
2023-07-18T01:05:43.238Z,29.34
2023-07-18T01:06:43.258Z,29.33
2023-07-18T01:07:43.255Z,29.33
2023-07-18T01:08:43.265Z,29.33
2023-07-18T01:09:43.286Z,29.33
2023-07-18T01:10:43.304Z,29.33
2023-07-18T01:11:43.339Z,29.32
2023-07-18T01:12:43.351Z,29.33
2023-07-18T01:13:43.373Z,29.32
2023-07-18T01:14:43.384Z,29.32
2023-07-18T01:15:43.440Z,29.32
2023-07-18T01:16:43.422Z,29.31
2023-07-18T01:17:43.459Z,29.31
2023-07-18T01:18:43.473Z,29.31
2023-07-18T01:19:43.478Z,29.31
2023-07-18T01:20:43.506Z,29.31
2023-07-18T01:21:43.518Z,29.31
2023-07-18T01:22:43.584Z,29.30
2023-07-18T01:23:43.556Z,29.30
2023-07-18T01:24:43.583Z,29.30
2023-07-18T01:25:43.625Z,29.30
2023-07-18T01:26:43.630Z,29.30
2023-07-18T01:27:43.644Z,29.30
2023-07-18T01:28:43.651Z,29.30
2023-07-18T01:29:43.719Z,29.29
2023-07-18T01:30:43.702Z,29.29
2023-07-18T01:31:43.815Z,29.29
2023-07-18T01:32:43.787Z,29.29
2023-07-18T01:33:43.791Z,29.28
2023-07-18T01:34:43.827Z,29.29
2023-07-18T01:35:43.844Z,29.28
2023-07-18T01:36:43.849Z,29.29
2023-07-18T01:37:43.845Z,29.29
2023-07-18T01:38:43.903Z,29.28
2023-07-18T01:39:43.903Z,29.28
2023-07-18T01:40:43.934Z,29.28
2023-07-18T01:41:43.941Z,29.28
2023-07-18T01:42:43.982Z,29.28
2023-07-18T01:43:43.989Z,29.28
2023-07-18T01:44:44.056Z,29.28
2023-07-18T01:45:44.038Z,29.27
2023-07-18T01:46:44.107Z,29.27
2023-07-18T01:47:44.131Z,29.27
2023-07-18T01:48:44.112Z,29.28
2023-07-18T01:49:44.149Z,29.27
2023-07-18T01:50:44.181Z,29.27
2023-07-18T01:51:44.175Z,29.27
2023-07-18T01:52:44.185Z,29.27
2023-07-18T01:53:44.227Z,29.26
2023-07-18T01:54:44.348Z,29.27
2023-07-18T01:55:44.243Z,29.26
2023-07-18T01:56:44.276Z,29.25
2023-07-18T01:57:44.311Z,29.26
2023-07-18T01:58:44.325Z,29.26
2023-07-18T01:59:44.366Z,29.25
2023-07-18T02:00:44.417Z,29.25
2023-07-18T02:01:44.391Z,29.25
2023-07-18T02:02:44.527Z,29.26
2023-07-18T02:03:44.453Z,29.25
2023-07-18T02:04:44.516Z,29.25
2023-07-18T02:05:44.515Z,29.25
2023-07-18T02:06:44.552Z,29.25
2023-07-18T02:07:44.602Z,29.24
2023-07-18T02:08:44.607Z,29.24
2023-07-18T02:09:44.620Z,29.24
2023-07-18T02:10:44.633Z,29.24
2023-07-18T02:11:44.663Z,29.23
2023-07-18T02:12:44.716Z,29.23
2023-07-18T02:13:44.758Z,29.23
2023-07-18T02:14:44.766Z,29.24
2023-07-18T02:15:44.776Z,29.23
2023-07-18T02:16:44.857Z,29.23
2023-07-18T02:17:45.047Z,29.23
2023-07-18T02:18:44.885Z,29.22
2023-07-18T02:19:44.921Z,29.23
2023-07-18T02:20:44.984Z,29.22
2023-07-18T02:21:45.012Z,29.22
2023-07-18T02:22:45.100Z,29.23
2023-07-18T02:23:47.160Z,29.22
2023-07-18T02:24:45.049Z,29.21
2023-07-18T02:25:45.029Z,29.21
2023-07-18T02:26:45.011Z,29.21
2023-07-18T02:27:45.006Z,29.21
2023-07-18T02:28:45.035Z,29.21
2023-07-18T02:29:45.002Z,29.21
2023-07-18T02:30:45.040Z,29.21
2023-07-18T02:31:44.975Z,29.20
2023-07-18T02:32:45.091Z,29.21
2023-07-18T02:33:44.976Z,29.20
2023-07-18T02:34:44.955Z,29.20
2023-07-18T02:35:44.946Z,29.20
2023-07-18T02:36:44.932Z,29.19
2023-07-18T02:37:44.944Z,29.19
2023-07-18T02:38:44.935Z,29.19
2023-07-18T02:39:44.913Z,29.19
2023-07-18T02:40:44.945Z,29.19
2023-07-18T02:41:44.909Z,29.18
2023-07-18T02:42:44.894Z,29.18
2023-07-18T02:43:44.893Z,29.18
2023-07-18T02:44:44.918Z,29.18
2023-07-18T02:45:44.880Z,29.19
2023-07-18T02:46:44.922Z,29.18
2023-07-18T02:47:44.938Z,29.18
2023-07-18T02:48:44.853Z,29.17
2023-07-18T02:49:44.855Z,29.18
2023-07-18T02:50:44.860Z,29.17
2023-07-18T02:51:44.861Z,29.18
2023-07-18T02:52:44.819Z,29.18
2023-07-18T02:53:44.824Z,29.18
2023-07-18T02:54:44.817Z,29.18
2023-07-18T02:55:44.835Z,29.17
2023-07-18T02:56:44.820Z,29.17
2023-07-18T02:57:44.791Z,29.17
2023-07-18T02:58:44.790Z,29.17
2023-07-18T02:59:44.777Z,29.17
2023-07-18T03:00:44.780Z,29.16
2023-07-18T03:01:44.821Z,29.17
2023-07-18T03:02:44.836Z,29.17
2023-07-18T03:03:44.772Z,29.16
2023-07-18T03:04:44.756Z,29.15
2023-07-18T03:05:44.748Z,29.15
2023-07-18T03:06:44.720Z,29.15
2023-07-18T03:07:44.730Z,29.15
2023-07-18T03:08:44.720Z,29.15
2023-07-18T03:09:44.741Z,29.14
2023-07-18T03:10:44.738Z,29.14
2023-07-18T03:11:44.705Z,29.14
2023-07-18T03:12:44.712Z,29.14
2023-07-18T03:13:44.758Z,29.14
2023-07-18T03:14:44.697Z,29.13
2023-07-18T03:15:44.668Z,29.14
2023-07-18T03:16:44.701Z,29.13
2023-07-18T03:17:44.723Z,29.14
2023-07-18T03:18:44.680Z,29.14
2023-07-18T03:19:44.665Z,29.14
2023-07-18T03:20:44.671Z,29.13
2023-07-18T03:21:44.791Z,29.14
2023-07-18T03:22:44.802Z,29.13
2023-07-18T03:23:44.796Z,29.13
2023-07-18T03:24:44.842Z,29.13
2023-07-18T03:25:44.890Z,29.13
2023-07-18T03:26:44.930Z,29.13
2023-07-18T03:27:44.957Z,29.12
2023-07-18T03:28:44.989Z,29.13
2023-07-18T03:29:45.140Z,29.12
2023-07-18T03:30:45.083Z,29.12
2023-07-18T03:31:45.144Z,29.12
2023-07-18T03:32:45.185Z,29.12
2023-07-18T03:33:45.235Z,29.12
2023-07-18T03:34:45.253Z,29.12
2023-07-18T03:35:45.297Z,29.12
2023-07-18T03:36:45.318Z,29.12
2023-07-18T03:37:45.344Z,29.12
2023-07-18T03:38:45.396Z,29.12
2023-07-18T03:39:45.432Z,29.12
2023-07-18T03:40:45.479Z,29.12
2023-07-18T03:41:45.537Z,29.12
2023-07-18T03:42:45.548Z,29.12
2023-07-18T03:43:45.613Z,29.12
2023-07-18T03:44:45.651Z,29.12
2023-07-18T03:45:45.708Z,29.12
2023-07-18T03:46:45.775Z,29.12
2023-07-18T03:47:45.805Z,29.11
2023-07-18T03:48:45.841Z,29.11
2023-07-18T03:49:45.860Z,29.11
2023-07-18T03:50:45.894Z,29.11
2023-07-18T03:51:45.917Z,29.11
2023-07-18T03:52:46.021Z,29.11
2023-07-18T03:53:46.009Z,29.11
2023-07-18T03:54:46.054Z,29.11
2023-07-18T03:55:46.099Z,29.11
2023-07-18T03:56:46.143Z,29.11
2023-07-18T03:57:46.179Z,29.11
2023-07-18T03:58:46.218Z,29.11
2023-07-18T03:59:46.262Z,29.11
2023-07-18T04:00:46.296Z,29.11
2023-07-18T04:01:46.341Z,29.10
2023-07-18T04:02:47.217Z,29.11
2023-07-18T04:03:46.470Z,29.10
2023-07-18T04:04:46.454Z,29.11
2023-07-18T04:05:46.505Z,29.10
2023-07-18T04:06:46.535Z,29.11
2023-07-18T04:07:46.610Z,29.11
2023-07-18T04:08:46.649Z,29.10
2023-07-18T04:09:46.687Z,29.10
2023-07-18T04:10:46.749Z,29.10
2023-07-18T04:11:46.812Z,29.10
2023-07-18T04:12:46.825Z,29.10
2023-07-18T04:13:46.906Z,29.10
2023-07-18T04:14:46.926Z,29.11
2023-07-18T04:15:47.002Z,29.11
2023-07-18T04:16:47.033Z,29.11
2023-07-18T04:17:47.064Z,29.11
2023-07-18T04:18:47.077Z,29.11
2023-07-18T04:19:47.131Z,29.10
2023-07-18T04:20:47.177Z,29.11
2023-07-18T04:21:47.262Z,29.10
2023-07-18T04:22:47.330Z,29.10
2023-07-18T04:23:47.319Z,29.10
2023-07-18T04:24:47.373Z,29.10
2023-07-18T04:25:47.426Z,29.10
2023-07-18T04:26:47.455Z,29.10
2023-07-18T04:27:47.531Z,29.10
2023-07-18T04:28:47.558Z,29.11
2023-07-18T04:29:47.606Z,29.11
2023-07-18T04:30:47.649Z,29.10
2023-07-18T04:31:47.704Z,29.10
2023-07-18T04:32:47.755Z,29.11
2023-07-18T04:33:47.778Z,29.10
2023-07-18T04:34:47.851Z,29.11
2023-07-18T04:35:47.899Z,29.11
2023-07-18T04:36:47.930Z,29.11
2023-07-18T04:37:47.980Z,29.11
2023-07-18T04:38:47.990Z,29.11
2023-07-18T04:39:48.023Z,29.11
2023-07-18T04:40:48.090Z,29.11
2023-07-18T04:41:55.136Z,29.11
2023-07-18T04:42:49.112Z,29.11
2023-07-18T04:43:48.104Z,29.12
2023-07-18T04:44:48.101Z,29.12
2023-07-18T04:45:48.174Z,29.12
2023-07-18T04:46:48.125Z,29.12
2023-07-18T04:47:48.087Z,29.12
2023-07-18T04:48:48.068Z,29.12
2023-07-18T04:49:48.051Z,29.12
2023-07-18T04:50:48.063Z,29.12
2023-07-18T04:51:48.095Z,29.13
2023-07-18T04:52:48.112Z,29.13
2023-07-18T04:53:48.150Z,29.14
2023-07-18T04:54:48.194Z,29.13
2023-07-18T04:55:48.250Z,29.14
2023-07-18T04:56:48.304Z,29.14
2023-07-18T04:57:48.305Z,29.14
2023-07-18T04:58:48.561Z,29.17
2023-07-18T04:59:48.529Z,29.22
2023-07-18T05:00:48.574Z,29.24
2023-07-18T05:01:48.506Z,29.27
2023-07-18T05:02:49.493Z,29.30
2023-07-18T05:03:57.451Z,29.31
2023-07-18T05:04:49.529Z,29.33
2023-07-18T05:05:48.543Z,29.34
2023-07-18T05:06:48.551Z,29.36
2023-07-18T05:07:48.562Z,29.37
2023-07-18T05:08:48.514Z,29.38
2023-07-18T05:09:49.432Z,29.39
2023-07-18T05:10:48.575Z,29.40
2023-07-18T05:11:48.566Z,29.41
2023-07-18T05:12:48.494Z,29.43
2023-07-18T05:13:49.411Z,29.43
2023-07-18T05:14:48.546Z,29.45
2023-07-18T05:15:48.514Z,29.45
2023-07-18T05:16:48.557Z,29.48
2023-07-18T05:17:48.583Z,29.48
2023-07-18T05:18:48.536Z,29.49
2023-07-18T05:19:48.510Z,29.50
2023-07-18T05:20:48.487Z,29.50
2023-07-18T05:21:48.580Z,29.51
2023-07-18T05:22:48.582Z,29.52
2023-07-18T05:23:48.423Z,29.52
2023-07-18T05:24:48.531Z,29.54
2023-07-18T05:25:48.560Z,29.54
2023-07-18T05:26:48.513Z,29.55
2023-07-18T05:27:48.496Z,29.57
2023-07-18T05:28:48.445Z,29.57
2023-07-18T05:29:48.514Z,29.58
2023-07-18T05:30:48.542Z,29.59
2023-07-18T05:31:48.578Z,29.59
2023-07-18T05:32:48.621Z,29.60
2023-07-18T05:33:48.510Z,29.61
2023-07-18T05:34:48.566Z,29.62
2023-07-18T05:35:48.586Z,29.63
2023-07-18T05:36:48.500Z,29.63
2023-07-18T05:37:48.530Z,29.65
2023-07-18T05:38:48.496Z,29.66
2023-07-18T05:39:48.612Z,29.66
2023-07-18T05:40:49.427Z,29.67
2023-07-18T05:41:49.416Z,29.68
2023-07-18T05:42:49.438Z,29.68
2023-07-18T05:43:48.586Z,29.70
2023-07-18T05:44:48.541Z,29.71
2023-07-18T05:45:48.945Z,29.72
2023-07-18T05:46:48.599Z,29.73
2023-07-18T05:47:48.645Z,29.74
2023-07-18T05:48:48.615Z,29.75
2023-07-18T05:49:48.648Z,29.77
2023-07-18T05:50:48.686Z,29.77
2023-07-18T05:51:48.681Z,29.79
2023-07-18T05:52:48.844Z,29.80
2023-07-18T05:53:48.944Z,29.81
2023-07-18T05:54:49.520Z,29.83
2023-07-18T05:55:48.911Z,29.84
2023-07-18T05:56:49.443Z,29.86
2023-07-18T05:57:48.951Z,29.87
2023-07-18T05:58:48.984Z,29.88
2023-07-18T05:59:49.015Z,29.90
2023-07-18T06:00:49.133Z,29.91
2023-07-18T06:01:49.123Z,29.92
2023-07-18T06:02:49.131Z,29.94
2023-07-18T06:03:49.174Z,29.96
2023-07-18T06:04:49.199Z,29.96
2023-07-18T06:05:49.261Z,29.98
2023-07-18T06:06:49.313Z,30.00
2023-07-18T06:07:49.347Z,30.01
2023-07-18T06:08:49.395Z,30.02
2023-07-18T06:09:49.434Z,30.03
2023-07-18T06:10:49.492Z,30.04
2023-07-18T06:11:49.574Z,30.06
2023-07-18T06:12:49.641Z,30.07
2023-07-18T06:13:49.614Z,30.08
2023-07-18T06:14:49.673Z,30.10
2023-07-18T06:15:49.741Z,30.11
2023-07-18T06:16:49.787Z,30.12
2023-07-18T06:17:49.847Z,30.13
2023-07-18T06:18:49.901Z,30.14
2023-07-18T06:19:49.942Z,30.16
2023-07-18T06:20:50.061Z,30.16
2023-07-18T06:21:50.076Z,30.18
2023-07-18T06:22:50.176Z,30.13
2023-07-18T06:23:50.205Z,30.14
2023-07-18T06:24:50.266Z,30.18
2023-07-18T06:25:50.299Z,30.19
2023-07-18T06:26:50.676Z,30.21
2023-07-18T06:27:50.429Z,30.23
2023-07-18T06:28:52.104Z,30.24
2023-07-18T06:29:50.488Z,30.26
2023-07-18T06:30:50.502Z,30.26
2023-07-18T06:31:50.552Z,30.28
2023-07-18T06:32:50.466Z,30.31
2023-07-18T06:33:50.443Z,30.32
2023-07-18T06:34:50.439Z,30.34
2023-07-18T06:35:50.437Z,30.35
2023-07-18T06:36:50.450Z,30.37
2023-07-18T06:37:50.449Z,30.38
2023-07-18T06:38:50.426Z,30.40
2023-07-18T06:39:50.433Z,30.42
2023-07-18T06:40:50.418Z,30.44
2023-07-18T06:41:50.383Z,30.47
2023-07-18T06:42:50.406Z,30.49
2023-07-18T06:43:50.394Z,30.51
2023-07-18T06:44:50.393Z,30.52
2023-07-18T06:45:50.360Z,30.55
2023-07-18T06:46:50.426Z,30.56
2023-07-18T06:47:50.400Z,30.58
2023-07-18T06:48:50.361Z,30.59
2023-07-18T06:49:50.327Z,30.62
2023-07-18T06:50:50.350Z,30.63
2023-07-18T06:51:50.320Z,30.64
2023-07-18T06:52:50.330Z,30.66
2023-07-18T06:53:50.365Z,30.68
2023-07-18T06:54:50.302Z,30.70
2023-07-18T06:55:50.306Z,30.71
2023-07-18T06:56:50.323Z,30.72
2023-07-18T06:57:50.296Z,30.74
2023-07-18T06:58:50.303Z,30.75
2023-07-18T06:59:50.277Z,30.75
2023-07-18T07:00:50.348Z,30.76
2023-07-18T07:01:50.262Z,30.78
2023-07-18T07:02:50.354Z,30.79
2023-07-18T07:03:50.360Z,30.80
2023-07-18T07:04:50.252Z,30.81
2023-07-18T07:05:50.233Z,30.82
2023-07-18T07:06:50.227Z,30.84
2023-07-18T07:07:50.259Z,30.85
2023-07-18T07:08:50.275Z,30.87
2023-07-18T07:09:50.223Z,30.89
2023-07-18T07:10:50.205Z,30.90
2023-07-18T07:11:50.183Z,30.90
2023-07-18T07:12:50.175Z,30.92
2023-07-18T07:13:50.200Z,30.94
2023-07-18T07:14:50.181Z,30.95
2023-07-18T07:15:50.181Z,30.96
2023-07-18T07:16:50.248Z,30.98
2023-07-18T07:17:50.201Z,31.00
2023-07-18T07:18:50.165Z,31.00
2023-07-18T07:19:50.178Z,31.01
2023-07-18T07:20:50.145Z,31.03
2023-07-18T07:21:50.112Z,31.04
2023-07-18T07:22:50.193Z,31.05
2023-07-18T07:23:50.242Z,31.05
2023-07-18T07:24:50.268Z,31.06
2023-07-18T07:25:50.355Z,31.08
2023-07-18T07:26:50.391Z,31.09
2023-07-18T07:27:50.440Z,31.10
2023-07-18T07:28:50.472Z,31.12
2023-07-18T07:29:50.522Z,31.13
2023-07-18T07:30:50.575Z,31.15
2023-07-18T07:31:50.662Z,31.16
2023-07-18T07:32:50.809Z,31.17
2023-07-18T07:33:50.905Z,31.17
2023-07-18T07:34:51.012Z,31.18
2023-07-18T07:35:51.172Z,31.21
2023-07-18T07:36:51.297Z,31.21
2023-07-18T07:37:51.438Z,31.22
2023-07-18T07:38:51.543Z,31.24
2023-07-18T07:39:51.718Z,31.24
2023-07-18T07:40:51.816Z,31.25
2023-07-18T07:41:51.932Z,31.26
2023-07-18T07:42:52.009Z,31.27
2023-07-18T07:43:52.241Z,31.28
2023-07-18T07:44:52.310Z,31.30
2023-07-18T07:45:52.417Z,31.31
2023-07-18T07:46:52.605Z,31.33
2023-07-18T07:47:52.640Z,31.34
2023-07-18T07:48:52.740Z,31.34
2023-07-18T07:49:52.846Z,31.36
2023-07-18T07:50:52.954Z,31.37
2023-07-18T07:51:53.037Z,31.38
2023-07-18T07:52:53.115Z,31.39
2023-07-18T07:53:53.250Z,31.41
2023-07-18T07:54:53.275Z,31.41
2023-07-18T07:55:53.304Z,31.42
2023-07-18T07:56:53.342Z,31.43
2023-07-18T07:57:53.378Z,31.44
2023-07-18T07:59:09.275Z,31.44
2023-07-18T07:59:54.416Z,31.45
2023-07-18T08:00:53.413Z,31.46
2023-07-18T08:01:54.007Z,31.48
2023-07-18T08:02:53.443Z,31.50
2023-07-18T08:03:53.389Z,31.50
2023-07-18T08:04:53.469Z,31.52
2023-07-18T08:05:53.378Z,31.53
2023-07-18T08:06:53.361Z,31.54
2023-07-18T08:07:53.384Z,31.55
2023-07-18T08:08:53.354Z,31.56
2023-07-18T08:09:53.368Z,31.57
2023-07-18T08:10:53.369Z,31.57
2023-07-18T08:11:53.408Z,31.58
2023-07-18T08:12:53.431Z,31.58
2023-07-18T08:13:53.487Z,31.59
2023-07-18T08:14:53.514Z,31.60
2023-07-18T08:15:53.618Z,31.61
2023-07-18T08:16:53.612Z,31.62
2023-07-18T08:17:53.662Z,31.63
2023-07-18T08:18:53.724Z,31.64
2023-07-18T08:19:53.716Z,31.64
2023-07-18T08:20:53.757Z,31.65
2023-07-18T08:21:53.779Z,31.65
2023-07-18T08:22:53.813Z,31.66
2023-07-18T08:23:53.888Z,31.67
2023-07-18T08:24:53.904Z,31.67
2023-07-18T08:25:53.906Z,31.68
2023-07-18T08:26:53.930Z,31.68
2023-07-18T08:27:53.970Z,31.68
2023-07-18T08:28:54.021Z,31.70
2023-07-18T08:29:54.048Z,31.69
2023-07-18T08:30:54.069Z,31.71
2023-07-18T08:31:54.141Z,31.72
2023-07-18T08:32:54.230Z,31.74
2023-07-18T08:33:54.145Z,31.73
2023-07-18T08:34:54.193Z,31.74
2023-07-18T08:35:54.224Z,31.75
2023-07-18T08:36:54.231Z,31.76
2023-07-18T08:37:54.249Z,31.76
2023-07-18T08:38:54.282Z,31.76
2023-07-18T08:39:54.289Z,31.77
2023-07-18T08:40:54.307Z,31.78
2023-07-18T08:41:54.324Z,31.78
2023-07-18T08:42:54.359Z,31.80
2023-07-18T08:43:54.373Z,31.79
2023-07-18T08:44:54.407Z,31.81
2023-07-18T08:45:54.444Z,31.81
2023-07-18T08:46:54.420Z,31.83
2023-07-18T08:47:54.475Z,31.84
2023-07-18T08:48:54.445Z,31.83
2023-07-18T08:49:54.470Z,31.84
2023-07-18T08:50:54.493Z,31.85
2023-07-18T08:51:54.489Z,31.85
2023-07-18T08:52:54.536Z,31.84
2023-07-18T08:53:54.548Z,31.86
2023-07-18T08:54:54.572Z,31.85
2023-07-18T08:55:54.633Z,31.86
2023-07-18T08:56:54.584Z,31.87
2023-07-18T08:57:54.559Z,31.88
2023-07-18T08:58:54.572Z,31.89
2023-07-18T08:59:54.591Z,31.89
2023-07-18T09:00:54.607Z,31.89
2023-07-18T09:01:54.656Z,31.90
2023-07-18T09:02:54.694Z,31.91
2023-07-18T09:03:54.658Z,31.92
2023-07-18T09:04:54.613Z,31.92
2023-07-18T09:05:54.606Z,31.93
2023-07-18T09:06:54.632Z,31.94
2023-07-18T09:07:54.620Z,31.95
2023-07-18T09:08:54.634Z,31.96
2023-07-18T09:09:54.624Z,31.95
2023-07-18T09:10:54.623Z,31.97
2023-07-18T09:11:54.641Z,31.98
2023-07-18T09:12:54.633Z,31.98
2023-07-18T09:13:54.666Z,31.99
2023-07-18T09:14:54.638Z,32.00
2023-07-18T09:15:54.651Z,32.00
2023-07-18T09:16:54.674Z,32.02
2023-07-18T09:17:54.709Z,32.02
2023-07-18T09:18:54.645Z,32.03
2023-07-18T09:19:54.633Z,32.04
2023-07-18T09:20:54.808Z,32.04
2023-07-18T09:21:54.667Z,32.05
2023-07-18T09:22:54.648Z,32.05
2023-07-18T09:23:54.645Z,32.05
2023-07-18T09:24:54.675Z,32.07
2023-07-18T09:25:54.674Z,32.08
2023-07-18T09:26:54.696Z,32.09
2023-07-18T09:27:54.745Z,32.09
2023-07-18T09:28:54.728Z,32.09
2023-07-18T09:29:54.741Z,32.09
2023-07-18T09:30:54.742Z,32.10
2023-07-18T09:31:54.748Z,32.11
2023-07-18T09:32:54.770Z,32.12
2023-07-18T09:33:54.885Z,32.12
2023-07-18T09:34:54.815Z,32.13
2023-07-18T09:35:54.823Z,32.14
2023-07-18T09:36:54.857Z,32.14
2023-07-18T09:37:54.846Z,32.14
2023-07-18T09:38:54.905Z,32.15
2023-07-18T09:39:54.931Z,32.15
2023-07-18T09:40:54.988Z,32.16
2023-07-18T09:41:55.018Z,32.16
2023-07-18T09:42:55.934Z,32.15
2023-07-18T09:44:09.591Z,32.16
2023-07-18T09:44:56.268Z,32.17
2023-07-18T09:45:55.089Z,32.18
2023-07-18T09:46:55.038Z,32.18
2023-07-18T09:47:55.075Z,32.19
2023-07-18T09:48:55.052Z,32.19
2023-07-18T09:49:55.032Z,32.19
2023-07-18T09:50:55.011Z,32.18
2023-07-18T09:51:55.009Z,32.18
2023-07-18T09:52:55.025Z,32.19
2023-07-18T09:53:55.124Z,32.20
2023-07-18T09:54:55.103Z,32.19
2023-07-18T09:55:55.134Z,32.21
2023-07-18T09:56:55.187Z,32.21
2023-07-18T09:57:55.214Z,32.21
2023-07-18T09:58:55.321Z,32.21
2023-07-18T09:59:55.356Z,32.21
2023-07-18T10:00:55.451Z,32.22
2023-07-18T10:01:55.569Z,32.21
2023-07-18T10:02:55.659Z,32.22
2023-07-18T10:03:55.724Z,32.21
2023-07-18T10:04:55.624Z,32.22
2023-07-18T10:05:55.699Z,32.22
2023-07-18T10:06:55.754Z,32.23
2023-07-18T10:07:55.821Z,32.22
2023-07-18T10:08:55.880Z,32.22
2023-07-18T10:09:55.914Z,32.23
2023-07-18T10:10:56.001Z,32.22
2023-07-18T10:11:56.010Z,32.22
2023-07-18T10:12:56.059Z,32.22
2023-07-18T10:13:56.117Z,32.23
2023-07-18T10:14:56.160Z,32.23
2023-07-18T10:15:56.234Z,32.23
2023-07-18T10:16:56.342Z,32.24
2023-07-18T10:17:56.412Z,32.23
2023-07-18T10:18:56.346Z,32.24
2023-07-18T10:19:56.436Z,32.24
2023-07-18T10:20:56.468Z,32.23
2023-07-18T10:21:56.641Z,32.23
2023-07-18T10:22:56.623Z,32.24
2023-07-18T10:23:56.627Z,32.24
2023-07-18T10:24:56.761Z,32.24
2023-07-18T10:25:56.720Z,32.25
2023-07-18T10:26:56.785Z,32.25
2023-07-18T10:27:56.799Z,32.26
2023-07-18T10:28:56.865Z,32.26
2023-07-18T10:29:56.913Z,32.26
2023-07-18T10:30:57.014Z,32.26
2023-07-18T10:31:57.062Z,32.26
2023-07-18T10:32:57.146Z,32.26
2023-07-18T10:33:57.119Z,32.25
2023-07-18T10:34:57.185Z,32.25
2023-07-18T10:35:57.258Z,32.24
2023-07-18T10:36:57.342Z,32.24
2023-07-18T10:37:57.321Z,32.25
2023-07-18T10:38:57.381Z,32.25
2023-07-18T10:39:57.438Z,32.25
2023-07-18T10:40:57.480Z,32.26
2023-07-18T10:41:57.566Z,32.25
2023-07-18T10:42:57.567Z,32.25
2023-07-18T10:43:57.592Z,32.26
2023-07-18T10:44:57.648Z,32.26
2023-07-18T10:45:57.703Z,32.25
2023-07-18T10:46:57.897Z,32.26
2023-07-18T10:47:57.797Z,32.25
2023-07-18T10:48:57.831Z,32.26
2023-07-18T10:49:57.896Z,32.26
2023-07-18T10:50:57.960Z,32.25
2023-07-18T10:51:58.046Z,32.24
2023-07-18T10:52:58.041Z,32.24
2023-07-18T10:53:58.114Z,32.24
2023-07-18T10:54:58.175Z,32.22
2023-07-18T10:55:58.239Z,32.23
2023-07-18T10:56:58.348Z,32.22
2023-07-18T10:57:58.319Z,32.22
2023-07-18T10:58:58.410Z,32.22
2023-07-18T10:59:58.459Z,32.22
2023-07-18T11:00:58.537Z,32.21
2023-07-18T11:01:58.566Z,32.21
2023-07-18T11:02:58.615Z,32.21
2023-07-18T11:03:58.632Z,32.20
2023-07-18T11:04:58.710Z,32.21
2023-07-18T11:05:58.780Z,32.20
2023-07-18T11:06:58.789Z,32.20
2023-07-18T11:07:58.841Z,32.19
2023-07-18T11:08:58.884Z,32.19
2023-07-18T11:09:58.931Z,32.19
2023-07-18T11:10:58.965Z,32.19
2023-07-18T11:11:59.081Z,32.20
2023-07-18T11:12:59.102Z,32.20
2023-07-18T11:13:59.137Z,32.19
2023-07-18T11:15:00.821Z,32.19
2023-07-18T11:15:59.288Z,32.19
2023-07-18T11:16:59.500Z,32.19
2023-07-18T11:17:59.431Z,32.19
2023-07-18T11:18:59.424Z,32.19
2023-07-18T11:19:59.477Z,32.19
2023-07-18T11:21:01.769Z,32.19
2023-07-18T11:21:59.526Z,32.19
2023-07-18T11:22:59.557Z,32.19
2023-07-18T11:23:59.521Z,32.18
2023-07-18T11:24:59.515Z,32.18
2023-07-18T11:25:59.483Z,32.18
2023-07-18T11:26:59.500Z,32.18
2023-07-18T11:27:59.480Z,32.17
2023-07-18T11:28:59.471Z,32.17
2023-07-18T11:29:59.453Z,32.17
2023-07-18T11:30:59.573Z,32.17
2023-07-18T11:31:59.486Z,32.17
2023-07-18T11:32:59.517Z,32.17
2023-07-18T11:33:59.454Z,32.17
2023-07-18T11:34:59.453Z,32.18
2023-07-18T11:35:59.452Z,32.18
2023-07-18T11:36:59.459Z,32.19
2023-07-18T11:37:59.429Z,32.18
2023-07-18T11:38:59.425Z,32.19
2023-07-18T11:39:59.393Z,32.16
2023-07-18T11:40:59.385Z,32.15
2023-07-18T11:41:59.378Z,32.16
2023-07-18T11:42:59.434Z,32.13
2023-07-18T11:43:59.385Z,32.12
2023-07-18T11:44:59.368Z,32.12
2023-07-18T11:45:59.373Z,32.12
2023-07-18T11:46:59.351Z,32.14
2023-07-18T11:47:59.435Z,32.13
2023-07-18T11:48:59.519Z,32.11
2023-07-18T11:49:59.340Z,32.10
2023-07-18T11:50:59.346Z,32.06
2023-07-18T11:51:59.332Z,32.04
2023-07-18T11:52:59.363Z,32.02
2023-07-18T11:53:59.318Z,32.00
2023-07-18T11:54:59.301Z,31.97
2023-07-18T11:55:59.303Z,31.95
2023-07-18T11:56:59.339Z,31.93
2023-07-18T11:57:59.323Z,31.90
2023-07-18T11:58:59.295Z,31.89
2023-07-18T11:59:59.254Z,31.87
2023-07-18T12:00:59.280Z,31.84
2023-07-18T12:01:59.346Z,31.82
2023-07-18T12:02:59.389Z,31.80
2023-07-18T12:03:59.453Z,31.79
2023-07-18T12:04:59.255Z,31.82
2023-07-18T12:05:59.224Z,31.87
2023-07-18T12:06:59.239Z,31.90
2023-07-18T12:07:59.223Z,31.92
2023-07-18T12:08:59.220Z,31.93
2023-07-18T12:09:59.207Z,31.93
2023-07-18T12:11:08.905Z,31.91
2023-07-18T12:12:00.209Z,31.88
2023-07-18T12:12:59.206Z,31.87
2023-07-18T12:13:59.174Z,31.88
2023-07-18T12:14:59.179Z,31.88
2023-07-18T12:15:59.181Z,31.90
2023-07-18T12:16:59.241Z,31.90
2023-07-18T12:17:59.236Z,31.91
2023-07-18T12:18:59.151Z,31.92
2023-07-18T12:19:59.190Z,31.92
2023-07-18T12:20:59.178Z,31.92
2023-07-18T12:21:59.177Z,31.92
2023-07-18T12:22:59.174Z,31.93
2023-07-18T12:23:59.130Z,31.93
2023-07-18T12:24:59.138Z,31.93
2023-07-18T12:25:59.140Z,31.93
2023-07-18T12:26:59.126Z,31.93
2023-07-18T12:27:59.126Z,31.93
2023-07-18T12:28:59.100Z,31.92
2023-07-18T12:29:59.113Z,31.92
2023-07-18T12:30:59.139Z,31.92
2023-07-18T12:31:59.221Z,31.91
2023-07-18T12:32:59.090Z,31.91
2023-07-18T12:33:59.066Z,31.91
2023-07-18T12:34:59.070Z,31.91
2023-07-18T12:35:59.070Z,31.91
2023-07-18T12:36:59.068Z,31.92
2023-07-18T12:37:59.058Z,31.92
2023-07-18T12:38:59.060Z,31.92
2023-07-18T12:39:59.132Z,31.92
2023-07-18T12:40:59.034Z,31.91
2023-07-18T12:41:59.030Z,31.89
2023-07-18T12:42:59.024Z,31.87
2023-07-18T12:43:59.028Z,31.85
2023-07-18T12:44:59.038Z,31.82
2023-07-18T12:45:59.057Z,31.80
2023-07-18T12:46:59.130Z,31.79
2023-07-18T12:47:59.114Z,31.78
2023-07-18T12:49:59.093Z,31.74
2023-07-18T12:50:59.055Z,31.72
2023-07-18T12:51:59.063Z,31.71
2023-07-18T12:52:59.116Z,31.69
2023-07-18T12:53:59.054Z,31.68